sensor_id;sensor_type;location;lat;lon;timestamp;temperature;humidity
45549;DHT22;31270;48.328;10.096;2023-11-19T00:00:26;5.80;99.90
45549;DHT22;31270;48.328;10.096;2023-11-19T00:02:52;5.80;99.90
45549;DHT22;31270;48.328;10.096;2023-11-19T00:05:18;5.90;99.90
45549;DHT22;31270;48.328;10.096;2023-11-19T00:07:44;5.90;99.90
45549;DHT22;31270;48.328;10.096;2023-11-19T00:10:10;5.90;99.90
45549;DHT22;31270;48.328;10.096;2023-11-19T00:12:43;6.00;99.90
45549;DHT22;31270;48.328;10.096;2023-11-19T00:15:10;6.00;99.90
45549;DHT22;31270;48.328;10.096;2023-11-19T00:17:40;6.00;99.90
45549;DHT22;31270;48.328;10.096;2023-11-19T00:20:13;6.00;99.90
45549;DHT22;31270;48.328;10.096;2023-11-19T00:22:40;6.10;99.90
45549;DHT22;31270;48.328;10.096;2023-11-19T00:25:07;6.10;99.90
45549;DHT22;31270;48.328;10.096;2023-11-19T00:27:33;6.10;99.90
45549;DHT22;31270;48.328;10.096;2023-11-19T00:29:58;6.10;99.90
45549;DHT22;31270;48.328;10.096;2023-11-19T00:32:24;6.10;99.90
45549;DHT22;31270;48.328;10.096;2023-11-19T00:34:50;6.10;99.90
45549;DHT22;31270;48.328;10.096;2023-11-19T00:37:15;6.10;99.90
45549;DHT22;31270;48.328;10.096;2023-11-19T00:39:41;6.20;99.90
45549;DHT22;31270;48.328;10.096;2023-11-19T00:42:07;6.20;99.90
45549;DHT22;31270;48.328;10.096;2023-11-19T00:44:33;6.20;99.90
45549;DHT22;31270;48.328;10.096;2023-11-19T00:46:59;6.20;99.90
45549;DHT22;31270;48.328;10.096;2023-11-19T00:49:25;6.20;99.90
45549;DHT22;31270;48.328;10.096;2023-11-19T00:51:51;6.30;99.90
45549;DHT22;31270;48.328;10.096;2023-11-19T00:54:16;6.30;99.90
45549;DHT22;31270;48.328;10.096;2023-11-19T00:56:42;6.30;99.90
45549;DHT22;31270;48.328;10.096;2023-11-19T00:59:07;6.30;99.90
45549;DHT22;31270;48.328;10.096;2023-11-19T01:01:33;6.30;99.90
45549;DHT22;31270;48.328;10.096;2023-11-19T01:03:59;6.30;99.90
45549;DHT22;31270;48.328;10.096;2023-11-19T01:06:28;6.30;99.90
45549;DHT22;31270;48.328;10.096;2023-11-19T01:08:54;6.40;99.90
45549;DHT22;31270;48.328;10.096;2023-11-19T01:11:21;6.40;99.90
45549;DHT22;31270;48.328;10.096;2023-11-19T01:13:47;6.40;99.90
45549;DHT22;31270;48.328;10.096;2023-11-19T01:16:13;6.40;99.90
45549;DHT22;31270;48.328;10.096;2023-11-19T01:18:38;6.40;99.90
45549;DHT22;31270;48.328;10.096;2023-11-19T01:21:05;6.40;99.90
45549;DHT22;31270;48.328;10.096;2023-11-19T01:23:31;6.40;99.90
45549;DHT22;31270;48.328;10.096;2023-11-19T01:25:57;6.50;99.90
45549;DHT22;31270;48.328;10.096;2023-11-19T01:28:23;6.50;99.90
45549;DHT22;31270;48.328;10.096;2023-11-19T01:30:52;6.50;99.90
45549;DHT22;31270;48.328;10.096;2023-11-19T01:33:18;6.50;99.90
45549;DHT22;31270;48.328;10.096;2023-11-19T01:35:44;6.50;99.90
45549;DHT22;31270;48.328;10.096;2023-11-19T01:38:09;6.60;99.90
45549;DHT22;31270;48.328;10.096;2023-11-19T01:40:36;6.60;99.90
45549;DHT22;31270;48.328;10.096;2023-11-19T01:43:02;6.70;99.90
45549;DHT22;31270;48.328;10.096;2023-11-19T01:45:29;6.70;99.90
45549;DHT22;31270;48.328;10.096;2023-11-19T01:47:59;6.70;99.90
45549;DHT22;31270;48.328;10.096;2023-11-19T01:50:26;6.70;99.90
45549;DHT22;31270;48.328;10.096;2023-11-19T01:52:55;6.70;99.90
45549;DHT22;31270;48.328;10.096;2023-11-19T01:55:24;6.70;99.90
45549;DHT22;31270;48.328;10.096;2023-11-19T01:57:51;6.70;99.90
45549;DHT22;31270;48.328;10.096;2023-11-19T02:00:19;6.70;99.90
45549;DHT22;31270;48.328;10.096;2023-11-19T02:02:46;6.80;99.90
45549;DHT22;31270;48.328;10.096;2023-11-19T02:05:14;6.80;99.90
45549;DHT22;31270;48.328;10.096;2023-11-19T02:07:40;6.80;99.90
45549;DHT22;31270;48.328;10.096;2023-11-19T02:10:06;6.80;99.90
45549;DHT22;31270;48.328;10.096;2023-11-19T02:12:39;6.90;99.90
45549;DHT22;31270;48.328;10.096;2023-11-19T02:15:09;6.90;99.90
45549;DHT22;31270;48.328;10.096;2023-11-19T02:17:35;6.90;99.90
45549;DHT22;31270;48.328;10.096;2023-11-19T02:20:03;6.90;99.90
45549;DHT22;31270;48.328;10.096;2023-11-19T02:22:31;6.90;99.90
45549;DHT22;31270;48.328;10.096;2023-11-19T02:25:00;6.90;99.90
45549;DHT22;31270;48.328;10.096;2023-11-19T02:27:44;7.00;99.90
45549;DHT22;31270;48.328;10.096;2023-11-19T02:30:11;7.00;99.90
45549;DHT22;31270;48.328;10.096;2023-11-19T02:32:41;7.00;99.90
45549;DHT22;31270;48.328;10.096;2023-11-19T02:35:07;7.00;99.90
45549;DHT22;31270;48.328;10.096;2023-11-19T02:37:38;7.00;99.90
45549;DHT22;31270;48.328;10.096;2023-11-19T02:40:04;7.00;99.90
45549;DHT22;31270;48.328;10.096;2023-11-19T02:42:31;7.00;99.90
45549;DHT22;31270;48.328;10.096;2023-11-19T02:44:57;7.10;99.90
45549;DHT22;31270;48.328;10.096;2023-11-19T02:47:22;7.10;99.90
45549;DHT22;31270;48.328;10.096;2023-11-19T02:49:49;7.10;99.90
45549;DHT22;31270;48.328;10.096;2023-11-19T02:52:15;7.10;99.90
45549;DHT22;31270;48.328;10.096;2023-11-19T02:54:42;7.20;99.90
45549;DHT22;31270;48.328;10.096;2023-11-19T02:57:08;7.20;99.90
45549;DHT22;31270;48.328;10.096;2023-11-19T02:59:40;7.30;99.90
45549;DHT22;31270;48.328;10.096;2023-11-19T03:02:08;7.20;99.90
45549;DHT22;31270;48.328;10.096;2023-11-19T03:04:38;7.20;99.90
45549;DHT22;31270;48.328;10.096;2023-11-19T03:07:08;7.30;99.90
45549;DHT22;31270;48.328;10.096;2023-11-19T03:09:33;7.30;99.90
45549;DHT22;31270;48.328;10.096;2023-11-19T03:12:01;7.30;99.90
45549;DHT22;31270;48.328;10.096;2023-11-19T03:14:26;7.40;99.90
45549;DHT22;31270;48.328;10.096;2023-11-19T03:16:52;7.40;99.90
45549;DHT22;31270;48.328;10.096;2023-11-19T03:19:17;7.40;99.90
45549;DHT22;31270;48.328;10.096;2023-11-19T03:21:43;7.40;99.90
45549;DHT22;31270;48.328;10.096;2023-11-19T03:24:10;7.40;99.90
45549;DHT22;31270;48.328;10.096;2023-11-19T03:26:38;7.50;99.90
45549;DHT22;31270;48.328;10.096;2023-11-19T03:29:03;7.50;99.90
45549;DHT22;31270;48.328;10.096;2023-11-19T03:31:29;7.50;99.90
45549;DHT22;31270;48.328;10.096;2023-11-19T03:33:55;7.50;99.90
45549;DHT22;31270;48.328;10.096;2023-11-19T03:36:20;7.50;99.90
45549;DHT22;31270;48.328;10.096;2023-11-19T03:38:46;7.50;99.90
45549;DHT22;31270;48.328;10.096;2023-11-19T03:41:12;7.60;99.90
45549;DHT22;31270;48.328;10.096;2023-11-19T03:43:39;7.60;99.90
45549;DHT22;31270;48.328;10.096;2023-11-19T03:46:05;7.60;99.90
45549;DHT22;31270;48.328;10.096;2023-11-19T03:48:40;7.60;99.90
45549;DHT22;31270;48.328;10.096;2023-11-19T03:51:06;7.60;99.90
45549;DHT22;31270;48.328;10.096;2023-11-19T03:53:31;7.70;99.90
45549;DHT22;31270;48.328;10.096;2023-11-19T03:55:57;7.70;99.90
45549;DHT22;31270;48.328;10.096;2023-11-19T03:58:22;7.70;99.90
45549;DHT22;31270;48.328;10.096;2023-11-19T04:00:48;7.70;99.90
45549;DHT22;31270;48.328;10.096;2023-11-19T04:03:13;7.80;99.90
45549;DHT22;31270;48.328;10.096;2023-11-19T04:05:39;7.70;99.90
45549;DHT22;31270;48.328;10.096;2023-11-19T04:08:05;7.70;99.90
45549;DHT22;31270;48.328;10.096;2023-11-19T04:10:31;7.80;99.90
45549;DHT22;31270;48.328;10.096;2023-11-19T04:12:56;7.80;99.90
45549;DHT22;31270;48.328;10.096;2023-11-19T04:15:22;7.80;99.90
45549;DHT22;31270;48.328;10.096;2023-11-19T04:17:47;7.80;99.90
45549;DHT22;31270;48.328;10.096;2023-11-19T04:20:14;7.90;99.90
45549;DHT22;31270;48.328;10.096;2023-11-19T04:22:39;7.90;99.90
45549;DHT22;31270;48.328;10.096;2023-11-19T04:25:06;7.90;99.90
45549;DHT22;31270;48.328;10.096;2023-11-19T04:27:32;7.90;99.90
45549;DHT22;31270;48.328;10.096;2023-11-19T04:29:58;7.90;99.90
45549;DHT22;31270;48.328;10.096;2023-11-19T04:32:23;7.90;99.90
45549;DHT22;31270;48.328;10.096;2023-11-19T04:34:51;7.90;99.90
45549;DHT22;31270;48.328;10.096;2023-11-19T04:37:16;8.00;99.90
45549;DHT22;31270;48.328;10.096;2023-11-19T04:39:44;8.10;99.90
45549;DHT22;31270;48.328;10.096;2023-11-19T04:42:10;8.00;99.90
45549;DHT22;31270;48.328;10.096;2023-11-19T04:44:36;8.00;99.90
45549;DHT22;31270;48.328;10.096;2023-11-19T04:47:01;8.00;99.90
45549;DHT22;31270;48.328;10.096;2023-11-19T04:49:27;8.00;99.90
45549;DHT22;31270;48.328;10.096;2023-11-19T04:51:53;8.00;99.90
45549;DHT22;31270;48.328;10.096;2023-11-19T04:54:19;8.00;99.90
45549;DHT22;31270;48.328;10.096;2023-11-19T04:56:47;8.00;99.90
45549;DHT22;31270;48.328;10.096;2023-11-19T04:59:14;8.00;99.90
45549;DHT22;31270;48.328;10.096;2023-11-19T05:01:40;8.00;99.90
45549;DHT22;31270;48.328;10.096;2023-11-19T05:04:06;8.00;99.90
45549;DHT22;31270;48.328;10.096;2023-11-19T05:06:32;8.00;99.90
45549;DHT22;31270;48.328;10.096;2023-11-19T05:08:59;8.00;99.90
45549;DHT22;31270;48.328;10.096;2023-11-19T05:11:33;8.00;99.90
45549;DHT22;31270;48.328;10.096;2023-11-19T05:14:00;8.00;99.90
45549;DHT22;31270;48.328;10.096;2023-11-19T05:16:25;8.10;99.90
45549;DHT22;31270;48.328;10.096;2023-11-19T05:18:51;8.00;99.90
45549;DHT22;31270;48.328;10.096;2023-11-19T05:21:17;8.00;99.90
45549;DHT22;31270;48.328;10.096;2023-11-19T05:23:43;8.10;99.90
45549;DHT22;31270;48.328;10.096;2023-11-19T05:26:09;8.10;99.90
45549;DHT22;31270;48.328;10.096;2023-11-19T05:28:38;8.00;99.90
45549;DHT22;31270;48.328;10.096;2023-11-19T05:31:05;8.00;99.90
45549;DHT22;31270;48.328;10.096;2023-11-19T05:33:31;8.10;99.90
45549;DHT22;31270;48.328;10.096;2023-11-19T05:35:57;8.10;99.90
45549;DHT22;31270;48.328;10.096;2023-11-19T05:38:23;8.10;99.90
45549;DHT22;31270;48.328;10.096;2023-11-19T05:40:48;8.10;99.90
45549;DHT22;31270;48.328;10.096;2023-11-19T05:43:15;8.10;99.90
45549;DHT22;31270;48.328;10.096;2023-11-19T05:45:42;8.10;99.90
45549;DHT22;31270;48.328;10.096;2023-11-19T05:48:07;8.10;99.90
45549;DHT22;31270;48.328;10.096;2023-11-19T05:50:34;8.10;99.90
45549;DHT22;31270;48.328;10.096;2023-11-19T05:53:00;8.10;99.90
45549;DHT22;31270;48.328;10.096;2023-11-19T05:55:26;8.10;99.90
45549;DHT22;31270;48.328;10.096;2023-11-19T05:57:53;8.10;99.90
45549;DHT22;31270;48.328;10.096;2023-11-19T06:00:19;8.20;99.90
45549;DHT22;31270;48.328;10.096;2023-11-19T06:02:45;8.10;99.90
45549;DHT22;31270;48.328;10.096;2023-11-19T06:05:10;8.20;99.90
45549;DHT22;31270;48.328;10.096;2023-11-19T06:07:36;8.20;99.90
45549;DHT22;31270;48.328;10.096;2023-11-19T06:10:04;8.20;99.90
45549;DHT22;31270;48.328;10.096;2023-11-19T06:12:33;8.20;99.90
45549;DHT22;31270;48.328;10.096;2023-11-19T06:14:59;8.20;99.90
45549;DHT22;31270;48.328;10.096;2023-11-19T06:17:25;8.20;99.90
45549;DHT22;31270;48.328;10.096;2023-11-19T06:19:51;8.30;99.90
45549;DHT22;31270;48.328;10.096;2023-11-19T06:22:17;8.30;99.90
45549;DHT22;31270;48.328;10.096;2023-11-19T06:24:43;8.30;99.90
45549;DHT22;31270;48.328;10.096;2023-11-19T06:27:08;8.30;99.90
45549;DHT22;31270;48.328;10.096;2023-11-19T06:29:34;8.30;99.90
45549;DHT22;31270;48.328;10.096;2023-11-19T06:32:00;8.40;99.90
45549;DHT22;31270;48.328;10.096;2023-11-19T06:34:25;8.40;99.90
45549;DHT22;31270;48.328;10.096;2023-11-19T06:36:51;8.40;99.90
45549;DHT22;31270;48.328;10.096;2023-11-19T06:39:18;8.40;99.90
45549;DHT22;31270;48.328;10.096;2023-11-19T06:41:45;8.40;99.90
45549;DHT22;31270;48.328;10.096;2023-11-19T06:44:12;8.50;99.90
45549;DHT22;31270;48.328;10.096;2023-11-19T06:46:37;8.50;99.90
45549;DHT22;31270;48.328;10.096;2023-11-19T06:49:03;8.60;99.90
45549;DHT22;31270;48.328;10.096;2023-11-19T06:51:29;8.60;99.90
45549;DHT22;31270;48.328;10.096;2023-11-19T06:53:55;8.60;99.90
45549;DHT22;31270;48.328;10.096;2023-11-19T06:56:21;8.60;99.90
45549;DHT22;31270;48.328;10.096;2023-11-19T06:58:47;8.70;99.90
45549;DHT22;31270;48.328;10.096;2023-11-19T07:01:17;8.70;99.90
45549;DHT22;31270;48.328;10.096;2023-11-19T07:03:45;8.70;99.90
45549;DHT22;31270;48.328;10.096;2023-11-19T07:06:11;8.70;99.90
45549;DHT22;31270;48.328;10.096;2023-11-19T07:08:38;8.80;99.90
45549;DHT22;31270;48.328;10.096;2023-11-19T07:11:04;8.80;99.90
45549;DHT22;31270;48.328;10.096;2023-11-19T07:13:30;8.90;99.90
45549;DHT22;31270;48.328;10.096;2023-11-19T07:15:56;8.80;99.90
45549;DHT22;31270;48.328;10.096;2023-11-19T07:18:22;8.80;99.90
45549;DHT22;31270;48.328;10.096;2023-11-19T07:20:48;8.90;99.90
45549;DHT22;31270;48.328;10.096;2023-11-19T07:23:14;8.90;99.90
45549;DHT22;31270;48.328;10.096;2023-11-19T07:25:43;8.90;99.90
45549;DHT22;31270;48.328;10.096;2023-11-19T07:28:12;8.90;99.90
45549;DHT22;31270;48.328;10.096;2023-11-19T07:30:38;9.00;99.90
45549;DHT22;31270;48.328;10.096;2023-11-19T07:33:04;9.00;99.90
45549;DHT22;31270;48.328;10.096;2023-11-19T07:35:31;9.00;99.90
45549;DHT22;31270;48.328;10.096;2023-11-19T07:37:57;9.10;99.90
45549;DHT22;31270;48.328;10.096;2023-11-19T07:40:23;9.10;99.90
45549;DHT22;31270;48.328;10.096;2023-11-19T07:42:49;9.20;99.90
45549;DHT22;31270;48.328;10.096;2023-11-19T07:45:15;9.20;99.90
45549;DHT22;31270;48.328;10.096;2023-11-19T07:47:40;9.20;99.90
45549;DHT22;31270;48.328;10.096;2023-11-19T07:50:06;9.30;99.90
45549;DHT22;31270;48.328;10.096;2023-11-19T07:52:32;9.30;99.90
45549;DHT22;31270;48.328;10.096;2023-11-19T07:54:58;9.30;99.90
45549;DHT22;31270;48.328;10.096;2023-11-19T07:57:27;9.30;99.90
45549;DHT22;31270;48.328;10.096;2023-11-19T07:59:55;9.40;99.90
45549;DHT22;31270;48.328;10.096;2023-11-19T08:02:22;9.40;99.90
45549;DHT22;31270;48.328;10.096;2023-11-19T08:04:49;9.40;99.90
45549;DHT22;31270;48.328;10.096;2023-11-19T08:07:18;9.40;99.90
45549;DHT22;31270;48.328;10.096;2023-11-19T08:09:50;9.40;99.90
45549;DHT22;31270;48.328;10.096;2023-11-19T08:12:15;9.50;99.90
45549;DHT22;31270;48.328;10.096;2023-11-19T08:14:43;9.50;99.90
45549;DHT22;31270;48.328;10.096;2023-11-19T08:17:09;9.50;99.90
45549;DHT22;31270;48.328;10.096;2023-11-19T08:19:35;9.60;99.90
45549;DHT22;31270;48.328;10.096;2023-11-19T08:22:01;9.60;99.90
45549;DHT22;31270;48.328;10.096;2023-11-19T08:24:27;9.60;99.90
45549;DHT22;31270;48.328;10.096;2023-11-19T08:26:53;9.70;99.90
45549;DHT22;31270;48.328;10.096;2023-11-19T08:29:19;9.70;99.90
45549;DHT22;31270;48.328;10.096;2023-11-19T08:31:45;9.70;99.90
45549;DHT22;31270;48.328;10.096;2023-11-19T08:34:11;9.80;99.90
45549;DHT22;31270;48.328;10.096;2023-11-19T08:36:37;9.80;99.90
45549;DHT22;31270;48.328;10.096;2023-11-19T08:39:03;9.80;99.90
45549;DHT22;31270;48.328;10.096;2023-11-19T08:41:28;9.80;99.90
45549;DHT22;31270;48.328;10.096;2023-11-19T08:43:54;9.80;99.90
45549;DHT22;31270;48.328;10.096;2023-11-19T08:46:20;9.80;99.90
45549;DHT22;31270;48.328;10.096;2023-11-19T08:48:45;9.90;99.90
45549;DHT22;31270;48.328;10.096;2023-11-19T08:51:14;9.90;99.90
45549;DHT22;31270;48.328;10.096;2023-11-19T08:53:39;9.90;99.90
45549;DHT22;31270;48.328;10.096;2023-11-19T08:56:06;10.00;99.90
45549;DHT22;31270;48.328;10.096;2023-11-19T08:58:32;10.00;99.90
45549;DHT22;31270;48.328;10.096;2023-11-19T09:00:58;10.00;99.90
45549;DHT22;31270;48.328;10.096;2023-11-19T09:03:23;10.00;99.90
45549;DHT22;31270;48.328;10.096;2023-11-19T09:05:52;10.10;99.90
45549;DHT22;31270;48.328;10.096;2023-11-19T09:08:17;10.10;99.90
45549;DHT22;31270;48.328;10.096;2023-11-19T09:10:43;10.10;99.90
45549;DHT22;31270;48.328;10.096;2023-11-19T09:13:08;10.20;99.90
45549;DHT22;31270;48.328;10.096;2023-11-19T09:15:34;10.20;99.90
45549;DHT22;31270;48.328;10.096;2023-11-19T09:18:00;10.30;99.90
45549;DHT22;31270;48.328;10.096;2023-11-19T09:20:25;10.40;99.90
45549;DHT22;31270;48.328;10.096;2023-11-19T09:22:51;10.40;99.90
45549;DHT22;31270;48.328;10.096;2023-11-19T09:25:17;10.50;99.90
45549;DHT22;31270;48.328;10.096;2023-11-19T09:27:45;10.50;99.90
45549;DHT22;31270;48.328;10.096;2023-11-19T09:30:11;10.50;99.90
45549;DHT22;31270;48.328;10.096;2023-11-19T09:32:38;10.50;99.90
45549;DHT22;31270;48.328;10.096;2023-11-19T09:35:04;10.60;99.90
45549;DHT22;31270;48.328;10.096;2023-11-19T09:37:29;10.70;99.90
45549;DHT22;31270;48.328;10.096;2023-11-19T09:39:55;10.70;99.90
45549;DHT22;31270;48.328;10.096;2023-11-19T09:42:22;10.70;99.90
45549;DHT22;31270;48.328;10.096;2023-11-19T09:44:49;10.80;99.90
45549;DHT22;31270;48.328;10.096;2023-11-19T09:47:14;10.80;99.90
45549;DHT22;31270;48.328;10.096;2023-11-19T09:49:42;10.90;99.90
45549;DHT22;31270;48.328;10.096;2023-11-19T09:52:09;10.90;99.90
45549;DHT22;31270;48.328;10.096;2023-11-19T09:54:34;11.00;99.90
45549;DHT22;31270;48.328;10.096;2023-11-19T09:57:02;11.00;99.90
45549;DHT22;31270;48.328;10.096;2023-11-19T09:59:31;11.10;99.90
45549;DHT22;31270;48.328;10.096;2023-11-19T10:01:59;11.10;99.90
45549;DHT22;31270;48.328;10.096;2023-11-19T10:04:25;11.20;99.90
45549;DHT22;31270;48.328;10.096;2023-11-19T10:06:54;11.30;99.90
45549;DHT22;31270;48.328;10.096;2023-11-19T10:09:20;11.30;99.90
45549;DHT22;31270;48.328;10.096;2023-11-19T10:11:46;11.40;99.90
45549;DHT22;31270;48.328;10.096;2023-11-19T10:14:13;11.50;99.90
45549;DHT22;31270;48.328;10.096;2023-11-19T10:16:40;11.40;99.90
45549;DHT22;31270;48.328;10.096;2023-11-19T10:19:06;11.50;99.90
45549;DHT22;31270;48.328;10.096;2023-11-19T10:21:35;11.50;99.90
45549;DHT22;31270;48.328;10.096;2023-11-19T10:24:01;11.50;99.90
45549;DHT22;31270;48.328;10.096;2023-11-19T10:26:27;11.60;99.90
45549;DHT22;31270;48.328;10.096;2023-11-19T10:28:53;11.60;99.90
45549;DHT22;31270;48.328;10.096;2023-11-19T10:31:20;11.70;99.90
45549;DHT22;31270;48.328;10.096;2023-11-19T10:33:52;11.80;99.90
45549;DHT22;31270;48.328;10.096;2023-11-19T10:36:18;11.80;99.90
45549;DHT22;31270;48.328;10.096;2023-11-19T10:38:57;11.80;99.90
45549;DHT22;31270;48.328;10.096;2023-11-19T10:41:31;11.90;99.90
45549;DHT22;31270;48.328;10.096;2023-11-19T10:44:00;11.90;99.90
45549;DHT22;31270;48.328;10.096;2023-11-19T10:46:55;12.00;99.90
45549;DHT22;31270;48.328;10.096;2023-11-19T10:49:21;12.10;99.90
45549;DHT22;31270;48.328;10.096;2023-11-19T10:51:47;12.30;99.90
45549;DHT22;31270;48.328;10.096;2023-11-19T10:54:18;12.40;99.90
45549;DHT22;31270;48.328;10.096;2023-11-19T10:56:45;12.40;99.90
45549;DHT22;31270;48.328;10.096;2023-11-19T10:59:14;12.50;99.90
45549;DHT22;31270;48.328;10.096;2023-11-19T11:01:45;12.60;99.90
45549;DHT22;31270;48.328;10.096;2023-11-19T11:04:14;12.60;99.90
45549;DHT22;31270;48.328;10.096;2023-11-19T11:06:43;12.70;99.90
45549;DHT22;31270;48.328;10.096;2023-11-19T11:09:10;12.70;99.90
45549;DHT22;31270;48.328;10.096;2023-11-19T11:11:46;12.80;99.90
45549;DHT22;31270;48.328;10.096;2023-11-19T11:14:13;12.90;99.90
45549;DHT22;31270;48.328;10.096;2023-11-19T11:16:46;13.00;99.90
45549;DHT22;31270;48.328;10.096;2023-11-19T11:19:15;13.00;99.90
45549;DHT22;31270;48.328;10.096;2023-11-19T11:21:44;13.00;99.90
45549;DHT22;31270;48.328;10.096;2023-11-19T11:30:11;13.00;99.90
45549;DHT22;31270;48.328;10.096;2023-11-19T11:35:31;13.10;99.90
45549;DHT22;31270;48.328;10.096;2023-11-19T11:38:04;13.10;99.90
45549;DHT22;31270;48.328;10.096;2023-11-19T11:40:32;13.30;99.90
45549;DHT22;31270;48.328;10.096;2023-11-19T11:42:58;13.30;99.90
45549;DHT22;31270;48.328;10.096;2023-11-19T11:45:37;13.40;99.90
45549;DHT22;31270;48.328;10.096;2023-11-19T11:48:14;13.40;99.90
45549;DHT22;31270;48.328;10.096;2023-11-19T11:50:53;13.40;99.90
45549;DHT22;31270;48.328;10.096;2023-11-19T11:53:20;13.40;99.90
45549;DHT22;31270;48.328;10.096;2023-11-19T11:58:17;13.30;99.90
45549;DHT22;31270;48.328;10.096;2023-11-19T12:00:42;13.30;99.90
45549;DHT22;31270;48.328;10.096;2023-11-19T12:03:09;13.40;99.90
45549;DHT22;31270;48.328;10.096;2023-11-19T12:05:44;13.30;99.90
45549;DHT22;31270;48.328;10.096;2023-11-19T12:08:12;13.20;99.90
45549;DHT22;31270;48.328;10.096;2023-11-19T12:10:50;13.20;99.90
45549;DHT22;31270;48.328;10.096;2023-11-19T12:13:17;13.20;99.90
45549;DHT22;31270;48.328;10.096;2023-11-19T12:16:07;13.20;99.90
45549;DHT22;31270;48.328;10.096;2023-11-19T12:18:33;13.30;99.90
45549;DHT22;31270;48.328;10.096;2023-11-19T12:21:00;13.30;99.90
45549;DHT22;31270;48.328;10.096;2023-11-19T12:23:27;13.30;99.90
45549;DHT22;31270;48.328;10.096;2023-11-19T12:25:54;13.30;99.90
45549;DHT22;31270;48.328;10.096;2023-11-19T12:28:20;13.40;99.90
45549;DHT22;31270;48.328;10.096;2023-11-19T12:30:46;13.50;99.90
45549;DHT22;31270;48.328;10.096;2023-11-19T12:33:15;13.70;99.90
45549;DHT22;31270;48.328;10.096;2023-11-19T12:35:43;13.90;99.90
45549;DHT22;31270;48.328;10.096;2023-11-19T12:38:18;13.90;99.90
45549;DHT22;31270;48.328;10.096;2023-11-19T12:40:45;14.10;99.90
45549;DHT22;31270;48.328;10.096;2023-11-19T12:43:10;14.10;99.90
45549;DHT22;31270;48.328;10.096;2023-11-19T12:45:46;14.10;99.90
45549;DHT22;31270;48.328;10.096;2023-11-19T12:48:11;14.10;99.90
45549;DHT22;31270;48.328;10.096;2023-11-19T12:50:53;14.10;99.90
45549;DHT22;31270;48.328;10.096;2023-11-19T12:53:19;14.20;99.90
45549;DHT22;31270;48.328;10.096;2023-11-19T12:55:45;14.20;99.90
45549;DHT22;31270;48.328;10.096;2023-11-19T12:58:10;14.20;99.90
45549;DHT22;31270;48.328;10.096;2023-11-19T13:00:36;14.20;99.90
45549;DHT22;31270;48.328;10.096;2023-11-19T13:03:02;14.20;99.90
45549;DHT22;31270;48.328;10.096;2023-11-19T13:05:34;14.20;99.90
45549;DHT22;31270;48.328;10.096;2023-11-19T13:08:08;14.20;99.90
45549;DHT22;31270;48.328;10.096;2023-11-19T13:10:54;14.30;99.90
45549;DHT22;31270;48.328;10.096;2023-11-19T13:13:19;14.50;99.90
45549;DHT22;31270;48.328;10.096;2023-11-19T13:15:45;14.30;99.90
45549;DHT22;31270;48.328;10.096;2023-11-19T13:18:11;14.20;99.90
45549;DHT22;31270;48.328;10.096;2023-11-19T13:20:39;14.20;99.90
45549;DHT22;31270;48.328;10.096;2023-11-19T13:23:05;14.10;99.90
45549;DHT22;31270;48.328;10.096;2023-11-19T13:25:32;14.00;99.90
45549;DHT22;31270;48.328;10.096;2023-11-19T13:27:59;14.00;99.90
45549;DHT22;31270;48.328;10.096;2023-11-19T13:30:25;14.00;99.90
45549;DHT22;31270;48.328;10.096;2023-11-19T13:32:52;14.00;99.90
45549;DHT22;31270;48.328;10.096;2023-11-19T13:35:18;13.90;99.90
45549;DHT22;31270;48.328;10.096;2023-11-19T13:37:45;14.00;99.90
45549;DHT22;31270;48.328;10.096;2023-11-19T13:40:12;13.90;99.90
45549;DHT22;31270;48.328;10.096;2023-11-19T13:42:44;14.00;99.90
45549;DHT22;31270;48.328;10.096;2023-11-19T13:45:13;13.90;99.90
45549;DHT22;31270;48.328;10.096;2023-11-19T13:47:40;13.90;99.90
45549;DHT22;31270;48.328;10.096;2023-11-19T13:50:11;13.90;99.90
45549;DHT22;31270;48.328;10.096;2023-11-19T13:52:37;13.90;99.90
45549;DHT22;31270;48.328;10.096;2023-11-19T13:55:08;13.90;99.90
45549;DHT22;31270;48.328;10.096;2023-11-19T13:57:38;13.80;99.90
45549;DHT22;31270;48.328;10.096;2023-11-19T14:00:09;13.70;99.90
45549;DHT22;31270;48.328;10.096;2023-11-19T14:02:39;13.70;99.90
45549;DHT22;31270;48.328;10.096;2023-11-19T14:05:06;13.70;99.90
45549;DHT22;31270;48.328;10.096;2023-11-19T14:07:31;13.70;99.90
45549;DHT22;31270;48.328;10.096;2023-11-19T14:09:57;13.60;99.90
45549;DHT22;31270;48.328;10.096;2023-11-19T14:12:23;13.60;99.90
45549;DHT22;31270;48.328;10.096;2023-11-19T14:14:49;13.60;99.90
45549;DHT22;31270;48.328;10.096;2023-11-19T14:17:14;13.70;99.90
45549;DHT22;31270;48.328;10.096;2023-11-19T14:19:41;13.60;99.90
45549;DHT22;31270;48.328;10.096;2023-11-19T14:22:07;13.60;99.90
45549;DHT22;31270;48.328;10.096;2023-11-19T14:24:34;13.60;99.90
45549;DHT22;31270;48.328;10.096;2023-11-19T14:27:00;13.50;99.90
45549;DHT22;31270;48.328;10.096;2023-11-19T14:29:27;13.40;99.90
45549;DHT22;31270;48.328;10.096;2023-11-19T14:31:53;13.50;99.90
45549;DHT22;31270;48.328;10.096;2023-11-19T14:34:20;13.30;99.90
45549;DHT22;31270;48.328;10.096;2023-11-19T14:36:45;13.30;99.90
45549;DHT22;31270;48.328;10.096;2023-11-19T14:39:11;13.30;99.90
45549;DHT22;31270;48.328;10.096;2023-11-19T14:41:37;13.20;99.90
45549;DHT22;31270;48.328;10.096;2023-11-19T14:44:03;13.10;99.90
45549;DHT22;31270;48.328;10.096;2023-11-19T14:46:29;13.00;99.90
45549;DHT22;31270;48.328;10.096;2023-11-19T14:48:54;13.00;99.90
45549;DHT22;31270;48.328;10.096;2023-11-19T14:51:20;12.90;99.90
45549;DHT22;31270;48.328;10.096;2023-11-19T14:53:46;12.80;99.90
45549;DHT22;31270;48.328;10.096;2023-11-19T14:56:12;12.70;99.90
45549;DHT22;31270;48.328;10.096;2023-11-19T14:58:38;12.70;99.90
45549;DHT22;31270;48.328;10.096;2023-11-19T15:01:06;12.60;99.90
45549;DHT22;31270;48.328;10.096;2023-11-19T15:03:33;12.60;99.90
45549;DHT22;31270;48.328;10.096;2023-11-19T15:05:58;12.50;99.90
45549;DHT22;31270;48.328;10.096;2023-11-19T15:08:25;12.40;99.90
45549;DHT22;31270;48.328;10.096;2023-11-19T15:10:50;12.50;99.90
45549;DHT22;31270;48.328;10.096;2023-11-19T15:13:16;12.40;99.90
45549;DHT22;31270;48.328;10.096;2023-11-19T15:15:42;12.30;99.90
45549;DHT22;31270;48.328;10.096;2023-11-19T15:18:07;12.30;99.90
45549;DHT22;31270;48.328;10.096;2023-11-19T15:20:34;12.20;99.90
45549;DHT22;31270;48.328;10.096;2023-11-19T15:23:01;12.20;99.90
45549;DHT22;31270;48.328;10.096;2023-11-19T15:25:27;12.20;99.90
45549;DHT22;31270;48.328;10.096;2023-11-19T15:27:53;12.10;99.90
45549;DHT22;31270;48.328;10.096;2023-11-19T15:30:19;12.10;99.90
45549;DHT22;31270;48.328;10.096;2023-11-19T15:32:44;12.00;99.90
45549;DHT22;31270;48.328;10.096;2023-11-19T15:35:10;12.10;99.90